sensor_id;sensor_type;location;lat;lon;timestamp;P1;durP1;ratioP1;P2;durP2;ratioP2
70049;SDS011;57391;51.306;22.680;2023-04-01T00:00:53;21.60;;;12.70;;
70049;SDS011;57391;51.306;22.680;2023-04-01T00:03:22;21.10;;;12.60;;
70049;SDS011;57391;51.306;22.680;2023-04-01T00:05:52;23.10;;;12.30;;
70049;SDS011;57391;51.306;22.680;2023-04-01T00:08:20;19.70;;;11.90;;
70049;SDS011;57391;51.306;22.680;2023-04-01T00:10:48;19.90;;;11.30;;
70049;SDS011;57391;51.306;22.680;2023-04-01T00:13:15;19.80;;;11.20;;
70049;SDS011;57391;51.306;22.680;2023-04-01T00:15:43;19.10;;;11.70;;
70049;SDS011;57391;51.306;22.680;2023-04-01T00:18:12;20.20;;;11.60;;
70049;SDS011;57391;51.306;22.680;2023-04-01T00:20:46;18.60;;;10.50;;
70049;SDS011;57391;51.306;22.680;2023-04-01T00:23:15;17.70;;;11.10;;
70049;SDS011;57391;51.306;22.680;2023-04-01T00:25:44;20.70;;;11.60;;
70049;SDS011;57391;51.306;22.680;2023-04-01T00:28:18;18.80;;;11.00;;
70049;SDS011;57391;51.306;22.680;2023-04-01T00:30:47;18.50;;;11.80;;
70049;SDS011;57391;51.306;22.680;2023-04-01T00:33:14;20.70;;;11.90;;
70049;SDS011;57391;51.306;22.680;2023-04-01T00:35:43;18.90;;;10.80;;
70049;SDS011;57391;51.306;22.680;2023-04-01T00:38:11;20.40;;;11.90;;
70049;SDS011;57391;51.306;22.680;2023-04-01T00:40:42;17.90;;;11.40;;
70049;SDS011;57391;51.306;22.680;2023-04-01T00:43:19;22.40;;;12.10;;
70049;SDS011;57391;51.306;22.680;2023-04-01T00:45:48;19.00;;;11.40;;
70049;SDS011;57391;51.306;22.680;2023-04-01T00:48:19;20.30;;;11.70;;
70049;SDS011;57391;51.306;22.680;2023-04-01T00:51:06;20.70;;;11.30;;
70049;SDS011;57391;51.306;22.680;2023-04-01T00:53:39;21.00;;;11.60;;
70049;SDS011;57391;51.306;22.680;2023-04-01T00:59:30;18.40;;;11.40;;
70049;SDS011;57391;51.306;22.680;2023-04-01T01:04:58;19.10;;;11.60;;
70049;SDS011;57391;51.306;22.680;2023-04-01T01:07:45;17.40;;;10.20;;
70049;SDS011;57391;51.306;22.680;2023-04-01T01:10:43;22.80;;;11.60;;
70049;SDS011;57391;51.306;22.680;2023-04-01T01:16:48;19.30;;;11.00;;
70049;SDS011;57391;51.306;22.680;2023-04-01T01:19:32;19.20;;;10.80;;
70049;SDS011;57391;51.306;22.680;2023-04-01T01:22:30;19.70;;;11.60;;
70049;SDS011;57391;51.306;22.680;2023-04-01T01:31:29;19.40;;;11.60;;
70049;SDS011;57391;51.306;22.680;2023-04-01T01:36:32;18.00;;;10.90;;
70049;SDS011;57391;51.306;22.680;2023-04-01T01:39:04;17.50;;;10.20;;
70049;SDS011;57391;51.306;22.680;2023-04-01T01:41:36;19.10;;;11.00;;
70049;SDS011;57391;51.306;22.680;2023-04-01T01:44:08;19.10;;;11.50;;
70049;SDS011;57391;51.306;22.680;2023-04-01T01:46:39;20.90;;;11.60;;
70049;SDS011;57391;51.306;22.680;2023-04-01T01:49:10;19.60;;;11.50;;
70049;SDS011;57391;51.306;22.680;2023-04-01T01:51:39;21.00;;;11.90;;
70049;SDS011;57391;51.306;22.680;2023-04-01T01:54:13;17.00;;;10.10;;
70049;SDS011;57391;51.306;22.680;2023-04-01T01:56:45;20.20;;;11.40;;
70049;SDS011;57391;51.306;22.680;2023-04-01T01:59:18;19.00;;;11.80;;
70049;SDS011;57391;51.306;22.680;2023-04-01T02:01:50;19.90;;;12.30;;
70049;SDS011;57391;51.306;22.680;2023-04-01T02:04:21;18.80;;;10.60;;
70049;SDS011;57391;51.306;22.680;2023-04-01T02:06:59;19.00;;;11.20;;
70049;SDS011;57391;51.306;22.680;2023-04-01T02:09:30;17.90;;;10.80;;
70049;SDS011;57391;51.306;22.680;2023-04-01T02:12:00;18.50;;;10.50;;
70049;SDS011;57391;51.306;22.680;2023-04-01T02:14:50;19.00;;;10.80;;
70049;SDS011;57391;51.306;22.680;2023-04-01T02:17:22;23.20;;;12.10;;
70049;SDS011;57391;51.306;22.680;2023-04-01T02:20:04;18.50;;;11.80;;
70049;SDS011;57391;51.306;22.680;2023-04-01T02:22:42;19.60;;;10.70;;
70049;SDS011;57391;51.306;22.680;2023-04-01T02:25:26;20.80;;;11.20;;
70049;SDS011;57391;51.306;22.680;2023-04-01T02:27:57;18.60;;;11.00;;
70049;SDS011;57391;51.306;22.680;2023-04-01T02:30:29;19.30;;;11.20;;
70049;SDS011;57391;51.306;22.680;2023-04-01T02:33:00;21.60;;;11.70;;
70049;SDS011;57391;51.306;22.680;2023-04-01T02:35:33;21.50;;;11.90;;
70049;SDS011;57391;51.306;22.680;2023-04-01T02:38:03;19.50;;;11.50;;
70049;SDS011;57391;51.306;22.680;2023-04-01T02:40:45;21.30;;;11.80;;
70049;SDS011;57391;51.306;22.680;2023-04-01T02:43:14;23.60;;;12.30;;
70049;SDS011;57391;51.306;22.680;2023-04-01T02:45:43;20.90;;;11.80;;
70049;SDS011;57391;51.306;22.680;2023-04-01T02:48:10;20.80;;;11.80;;
70049;SDS011;57391;51.306;22.680;2023-04-01T02:50:37;21.70;;;11.90;;
70049;SDS011;57391;51.306;22.680;2023-04-01T02:53:05;19.50;;;11.60;;
70049;SDS011;57391;51.306;22.680;2023-04-01T02:55:33;21.40;;;12.20;;
70049;SDS011;57391;51.306;22.680;2023-04-01T02:58:01;22.00;;;11.40;;
70049;SDS011;57391;51.306;22.680;2023-04-01T03:00:29;20.20;;;11.40;;
70049;SDS011;57391;51.306;22.680;2023-04-01T03:02:57;23.10;;;12.50;;
70049;SDS011;57391;51.306;22.680;2023-04-01T03:05:24;22.40;;;12.50;;
70049;SDS011;57391;51.306;22.680;2023-04-01T03:07:51;22.50;;;12.50;;
70049;SDS011;57391;51.306;22.680;2023-04-01T03:10:20;20.00;;;12.70;;
70049;SDS011;57391;51.306;22.680;2023-04-01T03:12:48;19.00;;;11.60;;
70049;SDS011;57391;51.306;22.680;2023-04-01T03:15:15;22.40;;;12.30;;
70049;SDS011;57391;51.306;22.680;2023-04-01T03:17:43;20.70;;;12.00;;
70049;SDS011;57391;51.306;22.680;2023-04-01T03:20:11;22.00;;;11.60;;
70049;SDS011;57391;51.306;22.680;2023-04-01T03:22:38;18.30;;;11.10;;
70049;SDS011;57391;51.306;22.680;2023-04-01T03:25:06;18.60;;;11.60;;
70049;SDS011;57391;51.306;22.680;2023-04-01T03:27:35;19.60;;;11.50;;
70049;SDS011;57391;51.306;22.680;2023-04-01T03:30:03;21.20;;;12.20;;
70049;SDS011;57391;51.306;22.680;2023-04-01T03:32:34;18.50;;;11.20;;
70049;SDS011;57391;51.306;22.680;2023-04-01T03:35:01;20.60;;;11.30;;
70049;SDS011;57391;51.306;22.680;2023-04-01T03:37:28;18.00;;;11.40;;
70049;SDS011;57391;51.306;22.680;2023-04-01T03:39:56;18.50;;;11.50;;
70049;SDS011;57391;51.306;22.680;2023-04-01T03:42:23;20.80;;;11.70;;
70049;SDS011;57391;51.306;22.680;2023-04-01T03:44:50;20.10;;;11.70;;
70049;SDS011;57391;51.306;22.680;2023-04-01T03:47:18;18.90;;;11.30;;
70049;SDS011;57391;51.306;22.680;2023-04-01T03:49:45;20.20;;;11.80;;
70049;SDS011;57391;51.306;22.680;2023-04-01T03:52:12;21.70;;;12.20;;
70049;SDS011;57391;51.306;22.680;2023-04-01T03:54:39;18.90;;;10.90;;
70049;SDS011;57391;51.306;22.680;2023-04-01T03:57:07;18.40;;;11.10;;
70049;SDS011;57391;51.306;22.680;2023-04-01T03:59:34;20.10;;;11.10;;
70049;SDS011;57391;51.306;22.680;2023-04-01T04:02:02;19.70;;;11.30;;
70049;SDS011;57391;51.306;22.680;2023-04-01T04:04:30;19.10;;;11.50;;
70049;SDS011;57391;51.306;22.680;2023-04-01T04:06:59;24.50;;;13.60;;
70049;SDS011;57391;51.306;22.680;2023-04-01T04:09:26;20.40;;;13.00;;
70049;SDS011;57391;51.306;22.680;2023-04-01T04:11:54;20.70;;;12.00;;
70049;SDS011;57391;51.306;22.680;2023-04-01T04:14:23;19.30;;;12.10;;
70049;SDS011;57391;51.306;22.680;2023-04-01T04:16:50;19.50;;;11.10;;
70049;SDS011;57391;51.306;22.680;2023-04-01T04:19:17;21.20;;;12.60;;
70049;SDS011;57391;51.306;22.680;2023-04-01T04:21:45;23.10;;;12.40;;
70049;SDS011;57391;51.306;22.680;2023-04-01T04:24:12;21.40;;;12.20;;
70049;SDS011;57391;51.306;22.680;2023-04-01T04:26:59;18.70;;;10.00;;
70049;SDS011;57391;51.306;22.680;2023-04-01T04:29:26;24.30;;;13.20;;
70049;SDS011;57391;51.306;22.680;2023-04-01T04:31:54;21.40;;;12.70;;
70049;SDS011;57391;51.306;22.680;2023-04-01T04:34:21;21.90;;;14.20;;
70049;SDS011;57391;51.306;22.680;2023-04-01T04:36:49;20.90;;;11.30;;
70049;SDS011;57391;51.306;22.680;2023-04-01T04:39:17;21.40;;;12.50;;
70049;SDS011;57391;51.306;22.680;2023-04-01T04:41:45;21.70;;;12.70;;
70049;SDS011;57391;51.306;22.680;2023-04-01T04:44:13;23.50;;;13.20;;
70049;SDS011;57391;51.306;22.680;2023-04-01T04:46:40;22.60;;;12.90;;
70049;SDS011;57391;51.306;22.680;2023-04-01T04:49:16;21.00;;;12.40;;
70049;SDS011;57391;51.306;22.680;2023-04-01T04:51:43;22.60;;;13.10;;
70049;SDS011;57391;51.306;22.680;2023-04-01T04:54:11;21.90;;;11.90;;
70049;SDS011;57391;51.306;22.680;2023-04-01T04:56:46;19.60;;;11.90;;
70049;SDS011;57391;51.306;22.680;2023-04-01T04:59:13;21.90;;;11.90;;
70049;SDS011;57391;51.306;22.680;2023-04-01T05:01:45;21.20;;;12.90;;
70049;SDS011;57391;51.306;22.680;2023-04-01T05:04:12;22.80;;;13.70;;
70049;SDS011;57391;51.306;22.680;2023-04-01T05:06:39;24.10;;;12.50;;
70049;SDS011;57391;51.306;22.680;2023-04-01T05:09:07;23.60;;;13.50;;
70049;SDS011;57391;51.306;22.680;2023-04-01T05:11:34;20.90;;;12.10;;
70049;SDS011;57391;51.306;22.680;2023-04-01T05:14:01;20.90;;;12.00;;
70049;SDS011;57391;51.306;22.680;2023-04-01T05:16:29;22.30;;;12.20;;
70049;SDS011;57391;51.306;22.680;2023-04-01T05:18:58;21.20;;;12.30;;
70049;SDS011;57391;51.306;22.680;2023-04-01T05:21:25;18.60;;;11.90;;
70049;SDS011;57391;51.306;22.680;2023-04-01T05:23:53;22.40;;;12.60;;
70049;SDS011;57391;51.306;22.680;2023-04-01T05:26:20;18.70;;;12.20;;
70049;SDS011;57391;51.306;22.680;2023-04-01T05:28:47;24.40;;;12.50;;
70049;SDS011;57391;51.306;22.680;2023-04-01T05:31:15;23.50;;;13.50;;
70049;SDS011;57391;51.306;22.680;2023-04-01T05:33:45;22.70;;;12.90;;
70049;SDS011;57391;51.306;22.680;2023-04-01T05:36:15;22.10;;;13.20;;
70049;SDS011;57391;51.306;22.680;2023-04-01T05:38:43;22.00;;;13.00;;
70049;SDS011;57391;51.306;22.680;2023-04-01T05:41:13;22.20;;;12.60;;
70049;SDS011;57391;51.306;22.680;2023-04-01T05:43:44;19.10;;;11.40;;
70049;SDS011;57391;51.306;22.680;2023-04-01T05:46:34;17.70;;;11.20;;
70049;SDS011;57391;51.306;22.680;2023-04-01T05:49:36;19.70;;;11.80;;
70049;SDS011;57391;51.306;22.680;2023-04-01T05:52:04;20.40;;;11.40;;
70049;SDS011;57391;51.306;22.680;2023-04-01T05:54:35;21.00;;;12.50;;
70049;SDS011;57391;51.306;22.680;2023-04-01T05:57:10;23.70;;;12.80;;
70049;SDS011;57391;51.306;22.680;2023-04-01T05:59:37;22.50;;;13.40;;
70049;SDS011;57391;51.306;22.680;2023-04-01T06:02:05;20.60;;;12.60;;
70049;SDS011;57391;51.306;22.680;2023-04-01T06:04:37;21.10;;;11.60;;
70049;SDS011;57391;51.306;22.680;2023-04-01T06:07:11;18.30;;;11.50;;
70049;SDS011;57391;51.306;22.680;2023-04-01T06:09:43;20.70;;;11.80;;
70049;SDS011;57391;51.306;22.680;2023-04-01T06:15:34;21.70;;;11.70;;
70049;SDS011;57391;51.306;22.680;2023-04-01T06:21:31;21.30;;;11.90;;
70049;SDS011;57391;51.306;22.680;2023-04-01T06:30:47;20.20;;;12.80;;
70049;SDS011;57391;51.306;22.680;2023-04-01T06:45:56;20.90;;;11.80;;
70049;SDS011;57391;51.306;22.680;2023-04-01T06:55:47;18.10;;;11.70;;
70049;SDS011;57391;51.306;22.680;2023-04-01T07:01:28;17.50;;;11.40;;
70049;SDS011;57391;51.306;22.680;2023-04-01T07:04:13;20.40;;;12.50;;
70049;SDS011;57391;51.306;22.680;2023-04-01T07:06:55;19.80;;;12.80;;
70049;SDS011;57391;51.306;22.680;2023-04-01T07:09:31;21.70;;;12.80;;
70049;SDS011;57391;51.306;22.680;2023-04-01T07:12:36;18.20;;;12.10;;
70049;SDS011;57391;51.306;22.680;2023-04-01T07:15:43;19.20;;;11.90;;
70049;SDS011;57391;51.306;22.680;2023-04-01T07:18:29;18.80;;;12.40;;
70049;SDS011;57391;51.306;22.680;2023-04-01T07:21:02;18.30;;;11.70;;
70049;SDS011;57391;51.306;22.680;2023-04-01T07:23:39;17.10;;;11.20;;
70049;SDS011;57391;51.306;22.680;2023-04-01T07:26:43;17.00;;;10.80;;
70049;SDS011;57391;51.306;22.680;2023-04-01T07:29:14;15.40;;;10.20;;
70049;SDS011;57391;51.306;22.680;2023-04-01T07:32:14;15.20;;;10.20;;
70049;SDS011;57391;51.306;22.680;2023-04-01T07:42:55;14.20;;;9.70;;
70049;SDS011;57391;51.306;22.680;2023-04-01T07:45:45;14.80;;;9.50;;
70049;SDS011;57391;51.306;22.680;2023-04-01T07:48:29;13.20;;;9.50;;
70049;SDS011;57391;51.306;22.680;2023-04-01T07:51:08;13.60;;;9.80;;
70049;SDS011;57391;51.306;22.680;2023-04-01T07:53:38;13.60;;;9.70;;
70049;SDS011;57391;51.306;22.680;2023-04-01T07:56:24;13.70;;;9.10;;
70049;SDS011;57391;51.306;22.680;2023-04-01T08:08:07;13.10;;;9.20;;
70049;SDS011;57391;51.306;22.680;2023-04-01T08:11:32;13.40;;;8.80;;
70049;SDS011;57391;51.306;22.680;2023-04-01T08:21:02;11.40;;;7.70;;
70049;SDS011;57391;51.306;22.680;2023-04-01T08:23:24;10.70;;;6.50;;
70049;SDS011;57391;51.306;22.680;2023-04-01T08:26:39;11.50;;;7.30;;
70049;SDS011;57391;51.306;22.680;2023-04-01T08:29:16;11.90;;;8.40;;
70049;SDS011;57391;51.306;22.680;2023-04-01T08:32:00;10.60;;;7.00;;
70049;SDS011;57391;51.306;22.680;2023-04-01T08:34:40;12.40;;;8.60;;
70049;SDS011;57391;51.306;22.680;2023-04-01T08:37:21;12.40;;;8.70;;
70049;SDS011;57391;51.306;22.680;2023-04-01T08:40:04;10.10;;;7.50;;
70049;SDS011;57391;51.306;22.680;2023-04-01T08:45:56;9.40;;;5.90;;
70049;SDS011;57391;51.306;22.680;2023-04-01T08:54:12;10.10;;;5.80;;
70049;SDS011;57391;51.306;22.680;2023-04-01T08:57:13;7.60;;;4.90;;
70049;SDS011;57391;51.306;22.680;2023-04-01T09:00:33;8.70;;;5.10;;
70049;SDS011;57391;51.306;22.680;2023-04-01T09:06:29;7.10;;;4.10;;
70049;SDS011;57391;51.306;22.680;2023-04-01T09:15:30;7.10;;;3.90;;
70049;SDS011;57391;51.306;22.680;2023-04-01T09:21:31;8.20;;;3.80;;
70049;SDS011;57391;51.306;22.680;2023-04-01T09:39:35;8.60;;;4.20;;
70049;SDS011;57391;51.306;22.680;2023-04-01T09:45:46;8.80;;;4.20;;
70049;SDS011;57391;51.306;22.680;2023-04-01T09:48:38;7.20;;;3.90;;
70049;SDS011;57391;51.306;22.680;2023-04-01T09:51:37;6.40;;;3.40;;
70049;SDS011;57391;51.306;22.680;2023-04-01T10:02:04;7.20;;;3.40;;
70049;SDS011;57391;51.306;22.680;2023-04-01T10:31:45;4.80;;;2.70;;
70049;SDS011;57391;51.306;22.680;2023-04-01T10:40:50;5.50;;;2.70;;
70049;SDS011;57391;51.306;22.680;2023-04-01T10:52:21;7.00;;;3.90;;
70049;SDS011;57391;51.306;22.680;2023-04-01T11:23:21;7.20;;;3.60;;
70049;SDS011;57391;51.306;22.680;2023-04-01T11:26:09;9.40;;;6.20;;
70049;SDS011;57391;51.306;22.680;2023-04-01T11:29:25;7.30;;;4.50;;
70049;SDS011;57391;51.306;22.680;2023-04-01T12:05:32;8.00;;;5.20;;
70049;SDS011;57391;51.306;22.680;2023-04-01T12:11:00;9.40;;;4.40;;
70049;SDS011;57391;51.306;22.680;2023-04-01T12:13:42;8.80;;;4.90;;
70049;SDS011;57391;51.306;22.680;2023-04-01T12:22:47;7.30;;;4.40;;
70049;SDS011;57391;51.306;22.680;2023-04-01T12:25:01;9.30;;;4.50;;
70049;SDS011;57391;51.306;22.680;2023-04-01T12:33:19;4.90;;;2.60;;
70049;SDS011;57391;51.306;22.680;2023-04-01T13:00:23;4.70;;;2.10;;
70049;SDS011;57391;51.306;22.680;2023-04-01T13:12:45;5.50;;;2.30;;
70049;SDS011;57391;51.306;22.680;2023-04-01T13:15:31;4.50;;;2.40;;
70049;SDS011;57391;51.306;22.680;2023-04-01T13:38:17;4.20;;;2.10;;
70049;SDS011;57391;51.306;22.680;2023-04-01T13:46:25;4.60;;;2.00;;
70049;SDS011;57391;51.306;22.680;2023-04-01T13:49:55;7.70;;;4.00;;
70049;SDS011;57391;51.306;22.680;2023-04-01T14:07:04;8.50;;;4.30;;
70049;SDS011;57391;51.306;22.680;2023-04-01T14:22:37;8.10;;;4.30;;
70049;SDS011;57391;51.306;22.680;2023-04-01T14:25:41;7.80;;;3.40;;
70049;SDS011;57391;51.306;22.680;2023-04-01T14:34:09;9.40;;;5.20;;
70049;SDS011;57391;51.306;22.680;2023-04-01T14:51:41;10.80;;;6.00;;
70049;SDS011;57391;51.306;22.680;2023-04-01T14:54:14;13.50;;;7.40;;
70049;SDS011;57391;51.306;22.680;2023-04-01T14:57:12;14.80;;;7.70;;
70049;SDS011;57391;51.306;22.680;2023-04-01T14:59:59;15.80;;;7.90;;
70049;SDS011;57391;51.306;22.680;2023-04-01T15:03:02;10.50;;;5.30;;
70049;SDS011;57391;51.306;22.680;2023-04-01T15:08:54;9.90;;;5.70;;
70049;SDS011;57391;51.306;22.680;2023-04-01T15:17:48;9.60;;;5.80;;
70049;SDS011;57391;51.306;22.680;2023-04-01T15:20:25;8.80;;;6.20;;
70049;SDS011;57391;51.306;22.680;2023-04-01T15:26:53;10.80;;;6.80;;
70049;SDS011;57391;51.306;22.680;2023-04-01T15:35:58;10.80;;;7.10;;
70049;SDS011;57391;51.306;22.680;2023-04-01T15:38:40;12.30;;;7.60;;
70049;SDS011;57391;51.306;22.680;2023-04-01T15:44:02;12.80;;;7.60;;
70049;SDS011;57391;51.306;22.680;2023-04-01T15:46:44;13.80;;;7.70;;
70049;SDS011;57391;51.306;22.680;2023-04-01T15:52:19;13.60;;;7.80;;
70049;SDS011;57391;51.306;22.680;2023-04-01T16:21:52;15.80;;;8.80;;
70049;SDS011;57391;51.306;22.680;2023-04-01T16:24:51;15.00;;;8.80;;
70049;SDS011;57391;51.306;22.680;2023-04-01T16:28:03;21.00;;;9.60;;
70049;SDS011;57391;51.306;22.680;2023-04-01T16:48:15;12.50;;;6.40;;
70049;SDS011;57391;51.306;22.680;2023-04-01T16:50:58;12.20;;;6.20;;
70049;SDS011;57391;51.306;22.680;2023-04-01T16:53:41;13.60;;;6.90;;
70049;SDS011;57391;51.306;22.680;2023-04-01T16:56:21;15.80;;;6.90;;
70049;SDS011;57391;51.306;22.680;2023-04-01T17:02:28;12.50;;;6.20;;
70049;SDS011;57391;51.306;22.680;2023-04-01T17:04:57;14.40;;;6.40;;
70049;SDS011;57391;51.306;22.680;2023-04-01T17:07:55;11.50;;;6.30;;
70049;SDS011;57391;51.306;22.680;2023-04-01T17:13:37;13.40;;;7.10;;
70049;SDS011;57391;51.306;22.680;2023-04-01T17:34:25;20.20;;;10.60;;
70049;SDS011;57391;51.306;22.680;2023-04-01T17:37:22;23.30;;;11.70;;
70049;SDS011;57391;51.306;22.680;2023-04-01T17:43:20;23.70;;;12.00;;
70049;SDS011;57391;51.306;22.680;2023-04-01T17:46:02;22.30;;;11.70;;
70049;SDS011;57391;51.306;22.680;2023-04-01T17:49:00;20.30;;;10.90;;
70049;SDS011;57391;51.306;22.680;2023-04-01T17:58:27;20.20;;;10.60;;
70049;SDS011;57391;51.306;22.680;2023-04-01T18:17:55;28.30;;;14.70;;
70049;SDS011;57391;51.306;22.680;2023-04-01T18:23:51;43.60;;;20.70;;
70049;SDS011;57391;51.306;22.680;2023-04-01T18:26:30;43.50;;;22.40;;
70049;SDS011;57391;51.306;22.680;2023-04-01T18:29:40;38.90;;;19.90;;
70049;SDS011;57391;51.306;22.680;2023-04-01T18:38:34;31.80;;;17.40;;
70049;SDS011;57391;51.306;22.680;2023-04-01T18:50:58;32.90;;;16.50;;
70049;SDS011;57391;51.306;22.680;2023-04-01T18:53:52;33.20;;;17.80;;
70049;SDS011;57391;51.306;22.680;2023-04-01T18:56:35;37.80;;;18.60;;
70049;SDS011;57391;51.306;22.680;2023-04-01T19:02:36;28.60;;;15.20;;
70049;SDS011;57391;51.306;22.680;2023-04-01T19:05:15;24.90;;;13.60;;
70049;SDS011;57391;51.306;22.680;2023-04-01T19:07:49;24.10;;;12.50;;
70049;SDS011;57391;51.306;22.680;2023-04-01T19:10:38;22.60;;;11.40;;
70049;SDS011;57391;51.306;22.680;2023-04-01T19:14:15;24.70;;;12.00;;
70049;SDS011;57391;51.306;22.680;2023-04-01T19:17:07;23.80;;;11.10;;
70049;SDS011;57391;51.306;22.680;2023-04-01T19:19:41;21.70;;;11.30;;
70049;SDS011;57391;51.306;22.680;2023-04-01T19:22:39;22.60;;;11.90;;
70049;SDS011;57391;51.306;22.680;2023-04-01T19:34:38;23.50;;;11.20;;
70049;SDS011;57391;51.306;22.680;2023-04-01T19:45:38;30.90;;;13.70;;
70049;SDS011;57391;51.306;22.680;2023-04-01T19:52:33;23.90;;;12.50;;
70049;SDS011;57391;51.306;22.680;2023-04-01T19:55:42;23.20;;;12.10;;
70049;SDS011;57391;51.306;22.680;2023-04-01T19:58:20;27.30;;;13.00;;
70049;SDS011;57391;51.306;22.680;2023-04-01T20:00:59;27.60;;;13.20;;
70049;SDS011;57391;51.306;22.680;2023-04-01T20:11:49;25.30;;;12.70;;
70049;SDS011;57391;51.306;22.680;2023-04-01T20:20:02;21.10;;;11.30;;
70049;SDS011;57391;51.306;22.680;2023-04-01T20:25:16;26.20;;;12.80;;
70049;SDS011;57391;51.306;22.680;2023-04-01T20:36:26;24.70;;;12.10;;
70049;SDS011;57391;51.306;22.680;2023-04-01T20:39:28;22.90;;;12.10;;
70049;SDS011;57391;51.306;22.680;2023-04-01T20:49:22;22.50;;;11.10;;
70049;SDS011;57391;51.306;22.680;2023-04-01T20:57:49;21.50;;;11.50;;
70049;SDS011;57391;51.306;22.680;2023-04-01T21:07:24;21.40;;;12.10;;
70049;SDS011;57391;51.306;22.680;2023-04-01T21:19:08;19.00;;;10.40;;
70049;SDS011;57391;51.306;22.680;2023-04-01T21:40:17;14.10;;;8.20;;
70049;SDS011;57391;51.306;22.680;2023-04-01T21:43:09;14.50;;;7.90;;
70049;SDS011;57391;51.306;22.680;2023-04-01T21:48:42;12.00;;;6.70;;
70049;SDS011;57391;51.306;22.680;2023-04-01T22:03:21;9.90;;;5.20;;
70049;SDS011;57391;51.306;22.680;2023-04-01T22:09:30;14.30;;;8.10;;
70049;SDS011;57391;51.306;22.680;2023-04-01T22:11:56;19.40;;;10.70;;
70049;SDS011;57391;51.306;22.680;2023-04-01T22:23:44;10.90;;;6.80;;
70049;SDS011;57391;51.306;22.680;2023-04-01T22:26:53;13.30;;;7.30;;
70049;SDS011;57391;51.306;22.680;2023-04-01T22:32:45;13.30;;;8.10;;
70049;SDS011;57391;51.306;22.680;2023-04-01T22:44:02;9.40;;;6.00;;
70049;SDS011;57391;51.306;22.680;2023-04-01T22:49:23;7.00;;;4.30;;
70049;SDS011;57391;51.306;22.680;2023-04-01T22:52:22;7.50;;;4.00;;
70049;SDS011;57391;51.306;22.680;2023-04-01T22:55:00;7.40;;;4.60;;
70049;SDS011;57391;51.306;22.680;2023-04-01T22:58:14;12.50;;;6.70;;
70049;SDS011;57391;51.306;22.680;2023-04-01T23:01:25;18.90;;;10.30;;
70049;SDS011;57391;51.306;22.680;2023-04-01T23:03:58;10.10;;;6.10;;
70049;SDS011;57391;51.306;22.680;2023-04-01T23:06:35;7.40;;;4.00;;
70049;SDS011;57391;51.306;22.680;2023-04-01T23:09:29;6.10;;;3.50;;
70049;SDS011;57391;51.306;22.680;2023-04-01T23:12:12;7.00;;;3.40;;
70049;SDS011;57391;51.306;22.680;2023-04-01T23:14:54;6.70;;;3.80;;
70049;SDS011;57391;51.306;22.680;2023-04-01T23:17:43;5.50;;;3.10;;
70049;SDS011;57391;51.306;22.680;2023-04-01T23:28:56;12.70;;;8.00;;
70049;SDS011;57391;51.306;22.680;2023-04-01T23:36:51;6.60;;;4.10;;
70049;SDS011;57391;51.306;22.680;2023-04-01T23:39:21;7.30;;;4.10;;
70049;SDS011;57391;51.306;22.680;2023-04-01T23:42:13;8.20;;;5.20;;
70049;SDS011;57391;51.306;22.680;2023-04-01T23:44:48;9.00;;;5.00;;
70049;SDS011;57391;51.306;22.680;2023-04-01T23:47:20;9.00;;;5.50;;
70049;SDS011;57391;51.306;22.680;2023-04-01T23:49:55;7.80;;;4.90;;
70049;SDS011;57391;51.306;22.680;2023-04-01T23:52:36;6.10;;;3.40;;
70049;SDS011;57391;51.306;22.680;2023-04-01T23:57:38;10.60;;;6.90;;
